Latest Weather Observations for Camden

IDN60801

Issued at 10:05 am EST Thursday 21 August 2014 (issued every 30 minutes, with the page automatically refreshed every 10 minutes)

About weather observations | Map of weather stations | Latest weather observations for NSW | Other Formats
Station Details ID: 068192 Name: CAMDEN AIRPORT AWS Lat: -34.04 Lon: 150.69 Height: 73.9 m
Data from the previous 72 hours. | See also: Recent months at Camden
Date/Time
EST
Temp
°C
App
Temp
°C
Dew
Point
Rel
Hum
%
Delta-T
°C
Wind Press
QNH
hPa
Press
MSL
hPa
Rain
since 9 am
mm
Dir
 
Spd
km/h
Gust
km/h
Spd
kts
Gust
kts
21/10:00am 14.7 12.6 8.4 66 3.2 S 9 13 5 7 1029.6 1029.6 0.0
21/09:30am 14.0 11.1 8.0 67 3.0 SSW 13 19 7 10 1029.6 - 0.0
21/09:00am 13.2 9.9 8.1 71 2.5 SSW 15 20 8 11 1029.6 1029.6 0.0
21/08:30am 12.1 9.6 8.4 78 1.8 SSW 11 17 6 9 1029.3 - 0.0
21/08:00am 9.9 9.4 7.8 87 1.0 CALM 0 0 0 0 1029.2 1029.3 0.0
21/07:30am 7.9 7.2 7.0 94 0.4 CALM 0 0 0 0 1029.0 - 0.0
21/07:00am 7.1 6.3 6.4 95 0.3 CALM 0 0 0 0 1028.7 1028.8 0.0
21/06:30am 6.5 5.5 5.6 94 0.4 CALM 0 0 0 0 1028.4 - 0.0
21/06:00am 6.8 5.9 5.9 94 0.4 WSW 0 0 0 0 1028.1 1028.2 0.0
21/05:30am 6.7 5.7 5.7 93 0.4 CALM 0 0 0 0 1027.9 - 0.0
21/05:00am 7.0 6.2 6.4 96 0.3 CALM 0 0 0 0 1027.7 1027.8 0.0
21/04:30am 6.6 5.8 6.3 98 0.1 CALM 0 0 0 0 1027.6 - 0.0
21/04:00am 6.2 5.2 5.8 97 0.2 CALM 0 0 0 0 1027.6 1027.7 0.0
21/03:30am 5.8 4.7 5.2 96 0.3 CALM 0 0 0 0 1027.5 - 0.0
21/03:00am 5.3 4.1 4.6 95 0.3 CALM 0 0 0 0 1027.2 1027.3 0.0
21/02:30am 4.9 3.5 3.7 92 0.5 CALM 0 0 0 0 1027.2 - 0.0
21/02:00am 6.0 4.8 4.8 92 0.5 CALM 0 0 0 0 1027.3 1027.4 0.0
21/01:30am 7.0 5.9 5.3 89 0.8 CALM 0 0 0 0 1027.3 - 0.0
21/01:00am 6.3 5.1 4.8 90 0.6 CALM 0 0 0 0 1027.3 1027.4 0.0
21/12:30am 6.9 5.8 5.2 89 0.8 CALM 0 6 0 3 1027.3 - 0.0
21/12:00am 6.9 5.8 5.2 89 0.7 WSW 0 0 0 0 1027.4 1027.5 0.0
 
Date/Time
EST
Temp
°C
App
Temp
°C
Dew
Point
Rel
Hum
%
Delta-T
°C
Wind Press
QNH
hPa
Press
MSL
hPa
Rain
since 9 am
mm
Dir
 
Spd
km/h
Gust
km/h
Spd
kts
Gust
kts
20/11:30pm 7.1 4.8 4.9 86 1.0 SW 6 9 3 5 1027.5 - 0.0
20/11:00pm 7.3 6.3 5.6 89 0.8 CALM 0 0 0 0 1027.5 1027.6 0.0
20/10:30pm 7.5 5.2 4.8 83 1.2 WSW 6 9 3 5 1027.5 - 0.0
20/10:00pm 7.7 6.7 5.7 87 0.9 CALM 0 0 0 0 1027.5 1027.6 0.0
20/09:30pm 7.9 6.9 5.5 85 1.1 CALM 0 0 0 0 1027.5 - 0.0
20/09:00pm 8.8 6.5 5.0 77 1.7 SW 6 7 3 4 1027.4 1027.5 0.0
20/08:30pm 9.1 7.0 5.7 79 1.6 SW 6 9 3 5 1027.2 - 0.0
20/08:00pm 9.3 8.4 6.0 80 1.5 CALM 0 0 0 0 1027.0 1027.1 0.0
20/07:30pm 9.7 7.9 5.3 74 2.0 W 4 7 2 4 1026.8 - 0.0
20/07:00pm 10.8 8.4 5.1 68 2.6 SW 7 9 4 5 1026.4 1026.5 0.0
20/06:30pm 12.3 9.6 5.7 64 3.1 S 9 13 5 7 1026.1 - 0.0
20/06:00pm 12.5 9.8 5.7 63 3.2 SSE 9 13 5 7 1025.9 1026.0 0.0
20/05:30pm 13.2 10.5 5.4 59 3.7 ESE 9 11 5 6 1025.5 - 0.0
20/05:00pm 13.8 11.0 5.2 56 4.0 ESE 9 13 5 7 1025.0 1025.1 0.0
20/04:30pm 14.6 11.4 5.1 53 4.5 SE 11 17 6 9 1024.6 - 0.0
20/04:00pm 16.8 13.4 5.7 48 5.4 ESE 13 19 7 10 1024.4 1024.5 0.0
20/03:30pm 15.6 12.0 4.9 49 5.1 SE 13 17 7 9 1024.2 - 0.0
20/03:00pm 17.0 13.8 5.0 45 5.7 ESE 11 17 6 9 1024.0 1024.1 0.0
20/02:30pm 17.0 13.8 5.0 45 5.7 ESE 11 17 6 9 1023.9 - 0.0
20/02:00pm 16.8 13.8 4.2 43 5.9 SSE 9 15 5 8 1023.8 1023.9 0.0
20/01:30pm 16.4 12.6 4.1 44 5.8 S 13 19 7 10 1023.9 - 0.0
20/01:00pm 16.5 13.1 4.2 44 5.7 S 11 17 6 9 1024.1 1024.2 0.0
20/12:30pm 16.2 12.4 3.9 44 5.7 SW 13 20 7 11 1024.4 - 0.0
20/12:00pm 16.4 13.8 4.1 44 5.7 SW 7 15 4 8 1024.7 1024.8 0.0
20/11:30am 16.1 12.0 4.2 45 5.6 S 15 22 8 12 1025.1 - 0.0
20/11:00am 15.1 11.4 4.5 49 4.9 S 13 20 7 11 1025.4 1025.5 0.0
20/10:30am 15.0 10.5 4.4 49 4.9 S 17 22 9 12 1025.5 - 0.0
20/10:00am 14.6 10.1 4.3 50 4.7 SSW 17 22 9 12 1025.5 1025.6 0.0
20/09:30am 13.9 9.1 4.5 53 4.3 SSW 19 30 10 16 1025.5 - 0.0
20/09:00am 12.6 8.9 4.6 58 3.6 S 13 19 7 10 1025.6 1025.7 0.2
20/08:30am 12.4 8.0 4.6 59 3.6 SSW 17 30 9 16 1025.4 - 0.2
20/08:00am 11.7 7.9 4.0 59 3.4 WSW 13 19 7 10 1025.1 1025.2 0.2
20/07:30am 11.5 7.1 4.7 63 3.1 SW 17 26 9 14 1024.8 - 0.2
20/07:00am 11.3 6.8 4.1 61 3.2 SW 17 24 9 13 1024.5 1024.6 0.2
20/06:30am 10.6 8.2 4.3 65 2.8 SW 6 9 3 5 1024.1 - 0.2
20/06:00am 10.5 7.9 4.2 65 2.8 SW 7 11 4 6 1023.7 1023.8 0.2
20/05:30am 10.4 6.6 3.9 64 2.9 WSW 13 17 7 9 1023.2 - 0.2
20/05:00am 10.9 7.1 4.1 63 3.0 WSW 13 20 7 11 1023.2 1023.3 0.2
20/04:30am 10.7 8.1 4.2 64 2.9 SSW 7 13 4 7 1023.2 - 0.2
20/04:00am 10.8 7.4 3.8 62 3.1 WSW 11 17 6 9 1022.8 1022.9 0.2
20/03:30am 10.6 7.1 3.6 62 3.1 SW 11 17 6 9 1022.4 - 0.2
20/03:00am 10.3 6.5 4.0 65 2.8 SW 13 20 7 11 1022.2 1022.3 0.2
20/02:30am 10.0 6.9 3.5 64 2.8 SW 9 17 5 9 1022.1 - 0.2
20/02:00am 9.9 5.7 3.9 66 2.6 SW 15 20 8 11 1022.3 1022.4 0.2
20/01:30am 10.0 6.2 4.0 66 2.7 SW 13 17 7 9 1022.4 - 0.2
20/01:00am 9.0 5.1 3.4 68 2.4 SW 13 17 7 9 1022.5 1022.6 0.2
20/12:30am 9.2 5.3 3.4 67 2.5 SW 13 15 7 8 1022.4 - 0.2
20/12:00am 9.3 5.4 3.5 67 2.5 SW 13 15 7 8 1022.4 1022.5 0.2
 
Date/Time
EST
Temp
°C
App
Temp
°C
Dew
Point
Rel
Hum
%
Delta-T
°C
Wind Press
QNH
hPa
Press
MSL
hPa
Rain
since 9 am
mm
Dir
 
Spd
km/h
Gust
km/h
Spd
kts
Gust
kts
19/11:30pm 10.2 6.4 3.7 64 2.9 SW 13 19 7 10 1022.4 - 0.2
19/11:00pm 10.7 6.9 4.0 63 3.0 SSW 13 22 7 12 1022.2 1022.3 0.2
19/10:30pm 11.3 6.9 4.7 64 3.0 WSW 17 22 9 12 1022.0 - 0.2
19/10:00pm 11.6 7.7 5.3 65 2.9 WSW 15 19 8 10 1022.1 1022.2 0.2
19/09:30pm 11.2 7.7 5.5 68 2.6 SW 13 19 7 10 1022.0 - 0.2
19/09:00pm 11.8 7.6 5.7 66 2.8 SSW 17 20 9 11 1021.7 1021.8 0.2
19/08:30pm 11.7 7.9 5.8 67 2.8 SSW 15 20 8 11 1021.7 - 0.2
19/08:00pm 11.3 8.3 5.8 69 2.6 SSW 11 15 6 8 1021.5 1021.6 0.2
19/07:30pm 12.1 8.8 6.2 67 2.8 SW 13 17 7 9 1021.2 - 0.2
19/07:00pm 12.1 9.1 5.9 66 2.9 WSW 11 15 6 8 1020.9 1021.0 0.2
19/06:30pm 13.1 8.5 5.8 61 3.5 SSW 19 30 10 16 1020.3 - 0.2
19/06:00pm 13.0 9.2 5.7 61 3.4 SW 15 19 8 10 1019.8 1019.8 0.2
19/05:30pm 13.4 8.7 6.0 61 3.5 SSW 20 28 11 15 1019.5 - 0.2
19/05:00pm 13.8 8.8 6.4 61 3.6 S 22 43 12 23 1019.0 1019.0 0.2
19/04:30pm 14.4 9.3 7.5 63 3.4 SSW 24 41 13 22 1018.5 - 0.2
19/04:00pm 14.9 9.6 7.0 59 3.9 S 24 43 13 23 1018.0 1018.0 0.2
19/03:30pm 15.2 11.0 7.5 60 3.8 S 19 33 10 18 1017.7 - 0.2
19/03:00pm 15.4 8.9 6.7 56 4.3 S 30 41 16 22 1017.4 1017.4 0.2
19/02:30pm 16.7 11.5 7.4 54 4.7 SSW 24 37 13 20 1016.9 - 0.2
19/02:00pm 17.2 12.4 7.5 53 4.9 S 22 33 12 18 1016.6 1016.6 0.2
19/01:30pm 17.9 12.2 8.2 53 5.0 SSW 28 41 15 22 1016.5 - 0.2
19/01:09pm 16.6 9.9 7.3 54 4.7 SSW 32 50 17 27 1016.4 - 0.2
19/01:00pm 16.4 9.5 7.3 55 4.5 S 33 50 18 27 1016.3 1016.3 0.2
19/12:30pm 15.8 12.3 10.8 72 2.7 SSW 20 28 11 15 1016.5 - 0.2
19/12:00pm 16.0 12.1 9.4 65 3.4 S 20 33 11 18 1016.6 1016.6 0.2
19/11:34am 15.4 9.7 8.4 63 3.6 S 28 48 15 26 1016.8 - 0.2
19/11:30am 17.2 12.3 8.4 56 4.5 S 24 41 13 22 1016.7 - 0.2
19/11:00am 16.2 11.5 9.2 63 3.6 SSW 24 41 13 22 1016.9 1016.9 0.2
19/10:31am 13.9 8.3 8.9 72 2.5 S 28 57 15 31 1016.8 - 0.0
19/10:30am 14.2 9.0 8.8 70 2.7 S 26 57 14 31 1016.7 - 0.0
19/10:00am 16.3 11.3 8.0 58 4.2 S 24 43 13 23 1016.3 1016.3 0.0
19/09:30am 15.4 12.0 9.3 67 3.2 S 17 20 9 11 1016.5 - 0.0
19/09:00am 14.4 11.1 9.6 73 2.5 SSW 17 22 9 12 1016.5 1016.5 9.2
19/08:30am 14.0 12.0 10.2 78 2.0 SW 11 15 6 8 1016.2 - 9.2
19/08:00am 13.3 10.9 9.9 80 1.8 SW 13 19 7 10 1016.0 1016.0 9.2
19/07:30am 12.3 9.7 9.5 83 1.4 SW 13 15 7 8 1015.5 - 9.2
19/07:00am 11.7 9.4 9.1 84 1.3 SSW 11 13 6 7 1015.0 1015.1 9.2
19/06:30am 12.1 9.5 9.5 84 1.3 SW 13 17 7 9 1014.7 - 9.2
19/06:00am 11.7 9.8 9.1 84 1.3 SW 9 13 5 7 1014.3 1014.4 9.2
19/05:30am 12.2 9.3 9.6 84 1.3 SW 15 24 8 13 1014.1 - 9.2
19/05:00am 11.8 10.0 9.5 86 1.2 SW 9 13 5 7 1013.6 1013.7 9.2
19/04:30am 12.2 9.0 9.8 85 1.2 SSW 17 26 9 14 1013.2 - 9.2
19/04:00am 12.4 9.3 10.3 87 1.1 SSW 17 32 9 17 1012.9 1013.0 9.2
19/03:30am 12.5 10.1 9.9 84 1.3 SW 13 17 7 9 1012.6 - 8.6
19/03:00am 12.5 9.4 10.2 86 1.2 SW 17 22 9 12 1012.5 1012.6 8.6
19/02:30am 12.0 9.2 10.1 88 1.0 SW 15 20 8 11 1012.1 - 8.6
19/02:00am 11.7 9.8 10.4 92 0.7 SW 11 15 6 8 1012.1 1012.2 8.6
19/01:30am 11.9 9.9 10.1 89 0.9 SW 11 15 6 8 1012.2 - 8.0
19/01:00am 12.1 8.9 10.0 87 1.1 SSW 17 28 9 15 1012.1 1012.2 7.8
19/12:30am 12.5 9.2 9.7 83 1.4 SSW 17 26 9 14 1011.7 - 7.4
19/12:00am 12.3 8.5 9.7 84 1.3 SW 20 33 11 18 1011.4 1011.5 7.0
 
Date/Time
EST
Temp
°C
App
Temp
°C
Dew
Point
Rel
Hum
%
Delta-T
°C
Wind Press
QNH
hPa
Press
MSL
hPa
Rain
since 9 am
mm
Dir
 
Spd
km/h
Gust
km/h
Spd
kts
Gust
kts
18/11:30pm 12.0 7.5 10.1 88 1.0 SW 24 32 13 17 1011.2 - 6.8
18/11:00pm 12.1 8.4 10.2 88 1.0 SW 20 32 11 17 1011.0 1011.1 5.8
18/10:30pm 12.0 8.0 10.4 90 0.8 SW 22 33 12 18 1010.9 - 5.6
18/10:00pm 12.5 8.4 10.2 86 1.2 SW 22 32 12 17 1010.7 1010.8 5.2
18/09:30pm 12.2 8.8 10.6 90 0.8 SW 19 26 10 14 1010.4 - 5.2
18/09:00pm 12.1 8.1 10.5 90 0.8 SW 22 32 12 17 1010.1 1010.2 5.2
18/08:30pm 12.3 8.8 10.2 87 1.1 SW 19 28 10 15 1010.0 - 4.8
18/08:00pm 12.8 8.5 9.4 80 1.7 SW 22 35 12 19 1009.6 1009.7 4.4
18/07:30pm 12.8 7.8 9.4 80 1.7 SW 26 39 14 21 1009.2 - 4.4
18/07:00pm 13.1 7.7 9.4 78 1.9 SW 28 39 15 21 1008.8 1008.8 4.4
18/06:30pm 14.0 8.4 8.6 70 2.7 SW 28 39 15 21 1008.5 - 4.4
18/06:00pm 13.8 8.2 8.8 72 2.5 SW 28 39 15 21 1008.1 1008.1 4.4
18/05:30pm 14.0 8.4 8.6 70 2.7 SW 28 35 15 19 1007.8 - 4.4
18/05:00pm 14.3 9.9 8.9 70 2.8 SW 22 32 12 17 1007.5 1007.5 4.4
18/04:30pm 15.0 9.4 8.7 66 3.2 SW 28 41 15 22 1007.1 - 4.4
18/04:00pm 15.4 9.8 8.6 64 3.5 SSW 28 39 15 21 1006.8 1006.8 4.4
18/03:30pm 15.7 9.4 8.9 64 3.5 SSW 32 43 17 23 1006.6 - 4.4
18/03:00pm 15.4 10.4 9.5 68 3.1 SSW 26 37 14 20 1006.7 1006.7 4.4
18/02:30pm 15.5 11.9 10.7 73 2.6 S 20 32 11 17 1006.3 - 4.4
18/02:00pm 15.4 12.1 11.6 78 2.1 S 20 28 11 15 1006.3 1006.3 4.4
18/01:30pm 14.9 9.8 10.7 76 2.2 S 28 41 15 22 1006.3 - 4.4
18/01:00pm 14.8 9.7 10.6 76 2.2 S 28 50 15 27 1006.2 1006.2 4.4
18/12:56pm 14.9 9.8 10.7 76 2.2 S 28 50 15 27 1006.1 - 4.4
18/12:30pm 14.3 9.8 11.5 83 1.5 S 26 44 14 24 1006.2 - 4.4
18/12:00pm 13.6 10.0 11.8 89 1.0 S 22 33 12 18 1006.4 1006.4 4.4
18/11:30am 12.7 8.9 11.1 90 0.8 S 22 33 12 18 1006.6 - 3.8
18/11:00am 12.9 9.2 11.5 91 0.7 SSW 22 32 12 17 1006.6 1006.6 3.2
18/10:30am 12.8 7.9 11.2 90 0.8 S 28 44 15 24 1006.4 - 2.8

Other Formats:

Comma delimited format used in spreadsheet applications
http://www.bom.gov.au/fwo/IDN60801/IDN60801.94755.axf

JavaScript Object Notation format (JSON) in row-major order
http://www.bom.gov.au/fwo/IDN60801/IDN60801.94755.json